sensor_id;sensor_type;location;lat;lon;timestamp;temperature;humidity
20041;DHT22;10181;48.072;9.884;2022-07-01T00:01:23;15.40;99.90
20041;DHT22;10181;48.072;9.884;2022-07-01T00:03:48;15.40;99.90
20041;DHT22;10181;48.072;9.884;2022-07-01T00:06:15;15.30;99.90
20041;DHT22;10181;48.072;9.884;2022-07-01T00:08:42;15.30;99.90
20041;DHT22;10181;48.072;9.884;2022-07-01T00:11:07;15.40;99.90
20041;DHT22;10181;48.072;9.884;2022-07-01T00:13:33;15.50;99.90
20041;DHT22;10181;48.072;9.884;2022-07-01T00:15:59;15.60;99.90
20041;DHT22;10181;48.072;9.884;2022-07-01T00:18:25;15.60;99.90
20041;DHT22;10181;48.072;9.884;2022-07-01T00:20:50;15.60;99.90
20041;DHT22;10181;48.072;9.884;2022-07-01T00:23:17;15.60;99.90
20041;DHT22;10181;48.072;9.884;2022-07-01T00:25:43;15.60;99.90
20041;DHT22;10181;48.072;9.884;2022-07-01T00:28:09;15.50;99.90
20041;DHT22;10181;48.072;9.884;2022-07-01T00:30:36;15.50;99.90
20041;DHT22;10181;48.072;9.884;2022-07-01T00:33:02;15.50;99.90
20041;DHT22;10181;48.072;9.884;2022-07-01T00:35:27;15.50;99.90
20041;DHT22;10181;48.072;9.884;2022-07-01T00:37:53;15.40;99.90
20041;DHT22;10181;48.072;9.884;2022-07-01T00:40:18;15.40;99.90
20041;DHT22;10181;48.072;9.884;2022-07-01T00:42:44;15.40;99.90
20041;DHT22;10181;48.072;9.884;2022-07-01T00:45:11;15.50;99.90
20041;DHT22;10181;48.072;9.884;2022-07-01T00:47:38;15.50;99.90
20041;DHT22;10181;48.072;9.884;2022-07-01T00:50:10;15.50;99.90
20041;DHT22;10181;48.072;9.884;2022-07-01T00:52:36;15.50;99.90
20041;DHT22;10181;48.072;9.884;2022-07-01T00:55:04;15.50;99.90
20041;DHT22;10181;48.072;9.884;2022-07-01T00:57:31;15.50;99.90
20041;DHT22;10181;48.072;9.884;2022-07-01T00:59:57;15.50;99.90
20041;DHT22;10181;48.072;9.884;2022-07-01T01:02:23;15.50;99.90
20041;DHT22;10181;48.072;9.884;2022-07-01T01:04:49;15.50;99.90
20041;DHT22;10181;48.072;9.884;2022-07-01T01:07:14;15.50;99.90
20041;DHT22;10181;48.072;9.884;2022-07-01T01:09:41;15.50;99.90
20041;DHT22;10181;48.072;9.884;2022-07-01T01:12:07;15.50;99.90
20041;DHT22;10181;48.072;9.884;2022-07-01T01:14:49;15.50;99.90
20041;DHT22;10181;48.072;9.884;2022-07-01T01:17:16;15.40;99.90
20041;DHT22;10181;48.072;9.884;2022-07-01T01:19:43;15.40;99.90
20041;DHT22;10181;48.072;9.884;2022-07-01T01:22:11;15.40;99.90
20041;DHT22;10181;48.072;9.884;2022-07-01T01:24:38;15.40;99.90
20041;DHT22;10181;48.072;9.884;2022-07-01T01:27:05;15.40;99.90
20041;DHT22;10181;48.072;9.884;2022-07-01T01:29:31;15.40;99.90
20041;DHT22;10181;48.072;9.884;2022-07-01T01:31:57;15.40;99.90
20041;DHT22;10181;48.072;9.884;2022-07-01T01:34:23;15.40;99.90
20041;DHT22;10181;48.072;9.884;2022-07-01T01:36:48;15.50;99.90
20041;DHT22;10181;48.072;9.884;2022-07-01T01:39:14;15.50;99.90
20041;DHT22;10181;48.072;9.884;2022-07-01T01:41:43;15.50;99.90
20041;DHT22;10181;48.072;9.884;2022-07-01T01:44:09;15.50;99.90
20041;DHT22;10181;48.072;9.884;2022-07-01T01:46:35;15.50;99.90
20041;DHT22;10181;48.072;9.884;2022-07-01T01:49:02;15.50;99.90
20041;DHT22;10181;48.072;9.884;2022-07-01T01:51:29;15.40;99.90
20041;DHT22;10181;48.072;9.884;2022-07-01T01:53:55;15.40;99.90
20041;DHT22;10181;48.072;9.884;2022-07-01T01:56:21;15.40;99.90
20041;DHT22;10181;48.072;9.884;2022-07-01T01:58:47;15.40;99.90
20041;DHT22;10181;48.072;9.884;2022-07-01T02:01:13;15.40;99.90
20041;DHT22;10181;48.072;9.884;2022-07-01T02:03:40;15.40;99.90
20041;DHT22;10181;48.072;9.884;2022-07-01T02:06:08;15.40;99.90
20041;DHT22;10181;48.072;9.884;2022-07-01T02:08:37;15.40;99.90
20041;DHT22;10181;48.072;9.884;2022-07-01T02:11:04;15.40;99.90
20041;DHT22;10181;48.072;9.884;2022-07-01T02:13:29;15.40;99.90
20041;DHT22;10181;48.072;9.884;2022-07-01T02:15:55;15.50;99.90
20041;DHT22;10181;48.072;9.884;2022-07-01T02:18:22;15.50;99.90
20041;DHT22;10181;48.072;9.884;2022-07-01T02:20:48;15.60;99.90
20041;DHT22;10181;48.072;9.884;2022-07-01T02:23:13;15.60;99.90
20041;DHT22;10181;48.072;9.884;2022-07-01T02:25:40;15.60;99.90
20041;DHT22;10181;48.072;9.884;2022-07-01T02:28:06;15.60;99.90
20041;DHT22;10181;48.072;9.884;2022-07-01T02:30:33;15.60;99.90
20041;DHT22;10181;48.072;9.884;2022-07-01T02:33:02;15.50;99.90
20041;DHT22;10181;48.072;9.884;2022-07-01T02:35:28;15.50;99.90
20041;DHT22;10181;48.072;9.884;2022-07-01T02:37:54;15.50;99.90
20041;DHT22;10181;48.072;9.884;2022-07-01T02:40:20;15.50;99.90
20041;DHT22;10181;48.072;9.884;2022-07-01T02:42:45;15.60;99.90
20041;DHT22;10181;48.072;9.884;2022-07-01T02:45:12;15.60;99.90
20041;DHT22;10181;48.072;9.884;2022-07-01T02:47:39;15.60;99.90
20041;DHT22;10181;48.072;9.884;2022-07-01T02:50:07;15.70;99.90
20041;DHT22;10181;48.072;9.884;2022-07-01T02:52:34;15.70;99.90
20041;DHT22;10181;48.072;9.884;2022-07-01T02:55:01;15.70;99.90
20041;DHT22;10181;48.072;9.884;2022-07-01T02:57:27;15.70;99.90
20041;DHT22;10181;48.072;9.884;2022-07-01T02:59:53;15.70;99.90
20041;DHT22;10181;48.072;9.884;2022-07-01T03:02:19;15.60;99.90
20041;DHT22;10181;48.072;9.884;2022-07-01T03:04:49;15.60;99.90
20041;DHT22;10181;48.072;9.884;2022-07-01T03:07:16;15.60;99.90
20041;DHT22;10181;48.072;9.884;2022-07-01T03:09:42;15.60;99.90
20041;DHT22;10181;48.072;9.884;2022-07-01T03:12:09;15.60;99.90
20041;DHT22;10181;48.072;9.884;2022-07-01T03:14:51;15.60;99.90
20041;DHT22;10181;48.072;9.884;2022-07-01T03:17:17;15.60;99.90
20041;DHT22;10181;48.072;9.884;2022-07-01T03:19:43;15.50;99.90
20041;DHT22;10181;48.072;9.884;2022-07-01T03:22:09;15.30;99.90
20041;DHT22;10181;48.072;9.884;2022-07-01T03:24:35;15.10;99.90
20041;DHT22;10181;48.072;9.884;2022-07-01T03:27:01;15.00;99.90
20041;DHT22;10181;48.072;9.884;2022-07-01T03:29:26;14.90;99.90
20041;DHT22;10181;48.072;9.884;2022-07-01T03:31:52;14.90;99.90
20041;DHT22;10181;48.072;9.884;2022-07-01T03:34:18;14.80;99.90
20041;DHT22;10181;48.072;9.884;2022-07-01T03:36:43;14.80;99.90
20041;DHT22;10181;48.072;9.884;2022-07-01T03:39:09;14.70;99.90
20041;DHT22;10181;48.072;9.884;2022-07-01T03:41:34;14.60;99.90
20041;DHT22;10181;48.072;9.884;2022-07-01T03:44:00;14.50;99.90
20041;DHT22;10181;48.072;9.884;2022-07-01T03:46:25;14.40;99.90
20041;DHT22;10181;48.072;9.884;2022-07-01T03:48:51;14.40;99.90
20041;DHT22;10181;48.072;9.884;2022-07-01T03:51:17;14.40;99.90
20041;DHT22;10181;48.072;9.884;2022-07-01T03:53:42;14.30;99.90
20041;DHT22;10181;48.072;9.884;2022-07-01T03:56:27;14.30;99.90
20041;DHT22;10181;48.072;9.884;2022-07-01T03:58:53;14.20;99.90
20041;DHT22;10181;48.072;9.884;2022-07-01T04:01:19;14.20;99.90
20041;DHT22;10181;48.072;9.884;2022-07-01T04:03:44;14.30;99.90
20041;DHT22;10181;48.072;9.884;2022-07-01T04:06:10;14.30;99.90
20041;DHT22;10181;48.072;9.884;2022-07-01T04:08:36;14.30;99.90
20041;DHT22;10181;48.072;9.884;2022-07-01T04:11:01;14.30;99.90
20041;DHT22;10181;48.072;9.884;2022-07-01T04:13:27;14.30;99.90
20041;DHT22;10181;48.072;9.884;2022-07-01T04:15:53;14.30;99.90
20041;DHT22;10181;48.072;9.884;2022-07-01T04:18:19;14.20;99.90
20041;DHT22;10181;48.072;9.884;2022-07-01T04:20:45;14.20;99.90
20041;DHT22;10181;48.072;9.884;2022-07-01T04:23:30;14.10;99.90
20041;DHT22;10181;48.072;9.884;2022-07-01T04:25:56;14.10;99.90
20041;DHT22;10181;48.072;9.884;2022-07-01T04:28:22;14.10;99.90
20041;DHT22;10181;48.072;9.884;2022-07-01T04:30:48;14.10;99.90
20041;DHT22;10181;48.072;9.884;2022-07-01T04:33:14;14.00;99.90
20041;DHT22;10181;48.072;9.884;2022-07-01T04:35:39;14.00;99.90
20041;DHT22;10181;48.072;9.884;2022-07-01T04:38:05;14.00;99.90
20041;DHT22;10181;48.072;9.884;2022-07-01T04:40:30;13.90;99.90
20041;DHT22;10181;48.072;9.884;2022-07-01T04:42:56;13.90;99.90
20041;DHT22;10181;48.072;9.884;2022-07-01T04:45:21;13.80;99.90
20041;DHT22;10181;48.072;9.884;2022-07-01T04:47:47;13.60;99.90
20041;DHT22;10181;48.072;9.884;2022-07-01T04:50:13;13.60;99.90
20041;DHT22;10181;48.072;9.884;2022-07-01T04:52:38;13.50;99.90
20041;DHT22;10181;48.072;9.884;2022-07-01T04:55:04;13.30;99.90
20041;DHT22;10181;48.072;9.884;2022-07-01T04:57:31;13.20;99.90
20041;DHT22;10181;48.072;9.884;2022-07-01T04:59:57;13.10;99.90
20041;DHT22;10181;48.072;9.884;2022-07-01T05:02:22;13.10;99.90
20041;DHT22;10181;48.072;9.884;2022-07-01T05:04:48;13.00;99.90
20041;DHT22;10181;48.072;9.884;2022-07-01T05:07:14;12.90;99.90
20041;DHT22;10181;48.072;9.884;2022-07-01T05:09:55;12.90;99.90
20041;DHT22;10181;48.072;9.884;2022-07-01T05:12:21;12.90;99.90
20041;DHT22;10181;48.072;9.884;2022-07-01T05:14:48;12.90;99.90
20041;DHT22;10181;48.072;9.884;2022-07-01T05:17:14;12.80;99.90
20041;DHT22;10181;48.072;9.884;2022-07-01T05:19:39;12.80;99.90
20041;DHT22;10181;48.072;9.884;2022-07-01T05:22:23;12.70;99.90
20041;DHT22;10181;48.072;9.884;2022-07-01T05:24:49;12.60;99.90
20041;DHT22;10181;48.072;9.884;2022-07-01T05:27:14;12.50;99.90
20041;DHT22;10181;48.072;9.884;2022-07-01T05:29:40;12.40;99.90
20041;DHT22;10181;48.072;9.884;2022-07-01T05:32:06;12.40;99.90
20041;DHT22;10181;48.072;9.884;2022-07-01T05:34:32;12.30;99.90
20041;DHT22;10181;48.072;9.884;2022-07-01T05:36:57;12.30;99.90
20041;DHT22;10181;48.072;9.884;2022-07-01T05:39:23;12.30;99.90
20041;DHT22;10181;48.072;9.884;2022-07-01T05:41:49;12.20;99.90
20041;DHT22;10181;48.072;9.884;2022-07-01T05:44:14;12.20;99.90
20041;DHT22;10181;48.072;9.884;2022-07-01T05:46:40;12.20;99.90
20041;DHT22;10181;48.072;9.884;2022-07-01T05:49:06;12.10;99.90
20041;DHT22;10181;48.072;9.884;2022-07-01T05:51:32;12.10;99.90
20041;DHT22;10181;48.072;9.884;2022-07-01T05:53:57;12.10;99.90
20041;DHT22;10181;48.072;9.884;2022-07-01T05:56:23;12.10;99.90
20041;DHT22;10181;48.072;9.884;2022-07-01T05:58:49;12.10;99.90
20041;DHT22;10181;48.072;9.884;2022-07-01T06:01:15;12.10;99.90
20041;DHT22;10181;48.072;9.884;2022-07-01T06:03:40;12.10;99.90
20041;DHT22;10181;48.072;9.884;2022-07-01T06:06:06;12.10;99.90
20041;DHT22;10181;48.072;9.884;2022-07-01T06:08:32;12.10;99.90
20041;DHT22;10181;48.072;9.884;2022-07-01T06:10:58;12.10;99.90
20041;DHT22;10181;48.072;9.884;2022-07-01T06:13:24;12.10;99.90
20041;DHT22;10181;48.072;9.884;2022-07-01T06:15:50;12.10;99.90
20041;DHT22;10181;48.072;9.884;2022-07-01T06:18:16;12.10;99.90
20041;DHT22;10181;48.072;9.884;2022-07-01T06:20:42;12.10;99.90
20041;DHT22;10181;48.072;9.884;2022-07-01T06:23:08;12.20;99.90
20041;DHT22;10181;48.072;9.884;2022-07-01T06:25:33;12.20;99.90
20041;DHT22;10181;48.072;9.884;2022-07-01T06:27:59;12.20;99.90
20041;DHT22;10181;48.072;9.884;2022-07-01T06:30:25;12.20;99.90
20041;DHT22;10181;48.072;9.884;2022-07-01T06:32:50;12.20;99.90
20041;DHT22;10181;48.072;9.884;2022-07-01T06:35:16;12.20;99.90
20041;DHT22;10181;48.072;9.884;2022-07-01T06:37:42;12.20;99.90
20041;DHT22;10181;48.072;9.884;2022-07-01T06:40:08;12.30;99.90
20041;DHT22;10181;48.072;9.884;2022-07-01T06:42:34;12.30;99.90
20041;DHT22;10181;48.072;9.884;2022-07-01T06:45:00;12.30;99.90
20041;DHT22;10181;48.072;9.884;2022-07-01T06:47:26;12.30;99.90
20041;DHT22;10181;48.072;9.884;2022-07-01T06:49:51;12.40;99.90
20041;DHT22;10181;48.072;9.884;2022-07-01T06:52:17;12.40;99.90
20041;DHT22;10181;48.072;9.884;2022-07-01T06:54:43;12.40;99.90
20041;DHT22;10181;48.072;9.884;2022-07-01T06:57:08;12.40;99.90
20041;DHT22;10181;48.072;9.884;2022-07-01T06:59:34;12.30;99.90
20041;DHT22;10181;48.072;9.884;2022-07-01T07:02:00;12.40;99.90
20041;DHT22;10181;48.072;9.884;2022-07-01T07:04:26;12.40;99.90
20041;DHT22;10181;48.072;9.884;2022-07-01T07:06:51;12.40;99.90
20041;DHT22;10181;48.072;9.884;2022-07-01T07:09:17;12.40;99.90
20041;DHT22;10181;48.072;9.884;2022-07-01T07:11:43;12.40;99.90
20041;DHT22;10181;48.072;9.884;2022-07-01T07:14:09;12.40;99.90
20041;DHT22;10181;48.072;9.884;2022-07-01T07:16:34;12.40;99.90
20041;DHT22;10181;48.072;9.884;2022-07-01T07:19:00;12.50;99.90
20041;DHT22;10181;48.072;9.884;2022-07-01T07:21:25;12.50;99.90
20041;DHT22;10181;48.072;9.884;2022-07-01T07:23:51;12.50;99.90
20041;DHT22;10181;48.072;9.884;2022-07-01T07:26:17;12.50;99.90
20041;DHT22;10181;48.072;9.884;2022-07-01T07:28:43;12.50;99.90
20041;DHT22;10181;48.072;9.884;2022-07-01T07:31:08;12.40;99.90
20041;DHT22;10181;48.072;9.884;2022-07-01T07:33:34;12.40;99.90
20041;DHT22;10181;48.072;9.884;2022-07-01T07:35:59;12.40;99.90
20041;DHT22;10181;48.072;9.884;2022-07-01T07:38:25;12.40;99.90
20041;DHT22;10181;48.072;9.884;2022-07-01T07:40:51;12.40;99.90
20041;DHT22;10181;48.072;9.884;2022-07-01T07:43:16;12.40;99.90
20041;DHT22;10181;48.072;9.884;2022-07-01T07:45:42;12.50;99.90
20041;DHT22;10181;48.072;9.884;2022-07-01T07:48:08;12.50;99.90
20041;DHT22;10181;48.072;9.884;2022-07-01T07:50:35;12.50;99.90
20041;DHT22;10181;48.072;9.884;2022-07-01T07:53:01;12.60;99.90
20041;DHT22;10181;48.072;9.884;2022-07-01T07:55:26;12.60;99.90
20041;DHT22;10181;48.072;9.884;2022-07-01T07:57:53;12.60;99.90
20041;DHT22;10181;48.072;9.884;2022-07-01T08:00:19;12.60;99.90
20041;DHT22;10181;48.072;9.884;2022-07-01T08:02:46;12.60;99.90
20041;DHT22;10181;48.072;9.884;2022-07-01T08:05:12;12.60;99.90
20041;DHT22;10181;48.072;9.884;2022-07-01T08:07:40;12.60;99.90
20041;DHT22;10181;48.072;9.884;2022-07-01T08:10:08;12.60;99.90
20041;DHT22;10181;48.072;9.884;2022-07-01T08:12:35;12.70;99.90
20041;DHT22;10181;48.072;9.884;2022-07-01T08:15:10;12.80;99.90
20041;DHT22;10181;48.072;9.884;2022-07-01T08:17:35;12.80;99.90
20041;DHT22;10181;48.072;9.884;2022-07-01T08:20:01;12.90;99.90
20041;DHT22;10181;48.072;9.884;2022-07-01T08:22:27;12.90;99.90
20041;DHT22;10181;48.072;9.884;2022-07-01T08:24:52;12.90;99.90
20041;DHT22;10181;48.072;9.884;2022-07-01T08:27:18;12.90;99.90
20041;DHT22;10181;48.072;9.884;2022-07-01T08:29:44;12.90;99.90
20041;DHT22;10181;48.072;9.884;2022-07-01T08:32:10;12.90;99.90
20041;DHT22;10181;48.072;9.884;2022-07-01T08:34:36;12.90;99.90
20041;DHT22;10181;48.072;9.884;2022-07-01T08:37:03;12.90;99.90
20041;DHT22;10181;48.072;9.884;2022-07-01T08:39:29;13.00;99.90
20041;DHT22;10181;48.072;9.884;2022-07-01T08:41:55;13.00;99.90
20041;DHT22;10181;48.072;9.884;2022-07-01T08:44:21;13.00;99.90
20041;DHT22;10181;48.072;9.884;2022-07-01T08:46:46;12.90;99.90
20041;DHT22;10181;48.072;9.884;2022-07-01T08:49:12;12.90;99.90
20041;DHT22;10181;48.072;9.884;2022-07-01T08:51:39;12.90;99.90
20041;DHT22;10181;48.072;9.884;2022-07-01T08:54:04;12.90;99.90
20041;DHT22;10181;48.072;9.884;2022-07-01T08:56:30;13.00;99.90
20041;DHT22;10181;48.072;9.884;2022-07-01T08:59:10;13.00;99.90
20041;DHT22;10181;48.072;9.884;2022-07-01T09:01:37;13.00;99.90
20041;DHT22;10181;48.072;9.884;2022-07-01T09:04:19;13.00;99.90
20041;DHT22;10181;48.072;9.884;2022-07-01T09:06:46;13.00;99.90
20041;DHT22;10181;48.072;9.884;2022-07-01T09:09:22;13.00;99.90
20041;DHT22;10181;48.072;9.884;2022-07-01T09:11:49;13.00;99.90
20041;DHT22;10181;48.072;9.884;2022-07-01T09:14:23;13.10;99.90
20041;DHT22;10181;48.072;9.884;2022-07-01T09:16:51;13.10;99.90
20041;DHT22;10181;48.072;9.884;2022-07-01T09:19:18;13.00;99.90
20041;DHT22;10181;48.072;9.884;2022-07-01T09:21:58;12.90;99.90
20041;DHT22;10181;48.072;9.884;2022-07-01T09:24:33;12.90;99.90
20041;DHT22;10181;48.072;9.884;2022-07-01T09:27:10;12.90;99.90
20041;DHT22;10181;48.072;9.884;2022-07-01T09:29:56;12.80;99.90
20041;DHT22;10181;48.072;9.884;2022-07-01T09:32:22;12.80;99.90
20041;DHT22;10181;48.072;9.884;2022-07-01T09:34:50;12.80;99.90
20041;DHT22;10181;48.072;9.884;2022-07-01T09:37:21;12.80;99.90
20041;DHT22;10181;48.072;9.884;2022-07-01T09:39:57;12.90;99.90
20041;DHT22;10181;48.072;9.884;2022-07-01T09:42:26;12.90;99.90
20041;DHT22;10181;48.072;9.884;2022-07-01T09:44:56;13.00;99.90
20041;DHT22;10181;48.072;9.884;2022-07-01T09:47:26;13.00;99.90
20041;DHT22;10181;48.072;9.884;2022-07-01T09:49:53;12.90;99.90
20041;DHT22;10181;48.072;9.884;2022-07-01T09:52:20;12.80;99.90
20041;DHT22;10181;48.072;9.884;2022-07-01T09:54:46;12.80;99.90
20041;DHT22;10181;48.072;9.884;2022-07-01T09:57:13;12.90;99.90
20041;DHT22;10181;48.072;9.884;2022-07-01T09:59:39;12.90;99.90
20041;DHT22;10181;48.072;9.884;2022-07-01T10:02:07;12.90;99.90
20041;DHT22;10181;48.072;9.884;2022-07-01T10:04:35;13.00;99.90
20041;DHT22;10181;48.072;9.884;2022-07-01T10:12:35;13.00;99.90
20041;DHT22;10181;48.072;9.884;2022-07-01T10:15:03;13.00;99.90
20041;DHT22;10181;48.072;9.884;2022-07-01T10:17:31;13.00;99.90
20041;DHT22;10181;48.072;9.884;2022-07-01T10:20:13;13.00;99.90
20041;DHT22;10181;48.072;9.884;2022-07-01T10:22:40;13.10;99.90
20041;DHT22;10181;48.072;9.884;2022-07-01T10:28:18;13.10;99.90
20041;DHT22;10181;48.072;9.884;2022-07-01T10:31:01;13.10;99.90
20041;DHT22;10181;48.072;9.884;2022-07-01T10:33:31;13.00;99.90
20041;DHT22;10181;48.072;9.884;2022-07-01T10:36:27;13.00;99.90
20041;DHT22;10181;48.072;9.884;2022-07-01T10:44:19;12.70;99.90
20041;DHT22;10181;48.072;9.884;2022-07-01T10:46:47;12.60;99.90
20041;DHT22;10181;48.072;9.884;2022-07-01T10:49:20;12.70;99.90
20041;DHT22;10181;48.072;9.884;2022-07-01T10:51:51;12.60;99.90
20041;DHT22;10181;48.072;9.884;2022-07-01T11:02:27;12.50;99.90
20041;DHT22;10181;48.072;9.884;2022-07-01T11:04:58;12.50;99.90
20041;DHT22;10181;48.072;9.884;2022-07-01T11:07:26;12.40;99.90
20041;DHT22;10181;48.072;9.884;2022-07-01T11:09:52;12.40;99.90
20041;DHT22;10181;48.072;9.884;2022-07-01T11:12:17;12.40;99.90
20041;DHT22;10181;48.072;9.884;2022-07-01T11:14:45;12.40;99.90
20041;DHT22;10181;48.072;9.884;2022-07-01T11:17:11;12.40;99.90
20041;DHT22;10181;48.072;9.884;2022-07-01T11:19:37;12.50;99.90
20041;DHT22;10181;48.072;9.884;2022-07-01T11:22:03;12.50;99.90
20041;DHT22;10181;48.072;9.884;2022-07-01T11:24:31;12.50;99.90
20041;DHT22;10181;48.072;9.884;2022-07-01T11:27:00;12.60;99.90
20041;DHT22;10181;48.072;9.884;2022-07-01T11:29:30;12.60;99.90
20041;DHT22;10181;48.072;9.884;2022-07-01T11:31:56;12.60;99.90
20041;DHT22;10181;48.072;9.884;2022-07-01T11:34:22;12.60;99.90
20041;DHT22;10181;48.072;9.884;2022-07-01T11:36:50;12.50;99.90
20041;DHT22;10181;48.072;9.884;2022-07-01T11:39:35;12.50;99.90
20041;DHT22;10181;48.072;9.884;2022-07-01T11:42:06;12.50;99.90
20041;DHT22;10181;48.072;9.884;2022-07-01T11:44:40;12.50;99.90
20041;DHT22;10181;48.072;9.884;2022-07-01T11:47:08;12.50;99.90
20041;DHT22;10181;48.072;9.884;2022-07-01T11:49:44;12.50;99.90
20041;DHT22;10181;48.072;9.884;2022-07-01T11:52:10;12.60;99.90
20041;DHT22;10181;48.072;9.884;2022-07-01T11:54:41;12.60;99.90
20041;DHT22;10181;48.072;9.884;2022-07-01T11:57:15;12.50;99.90
20041;DHT22;10181;48.072;9.884;2022-07-01T11:59:42;12.50;99.90
20041;DHT22;10181;48.072;9.884;2022-07-01T12:02:10;12.50;99.90
20041;DHT22;10181;48.072;9.884;2022-07-01T12:04:37;12.50;99.90
20041;DHT22;10181;48.072;9.884;2022-07-01T12:07:03;12.50;99.90
20041;DHT22;10181;48.072;9.884;2022-07-01T12:09:29;12.50;99.90
20041;DHT22;10181;48.072;9.884;2022-07-01T12:11:55;12.50;99.90
20041;DHT22;10181;48.072;9.884;2022-07-01T12:14:23;12.60;99.90
20041;DHT22;10181;48.072;9.884;2022-07-01T12:17:01;12.70;99.90
20041;DHT22;10181;48.072;9.884;2022-07-01T12:19:44;12.70;99.90
20041;DHT22;10181;48.072;9.884;2022-07-01T12:22:34;12.80;99.90
20041;DHT22;10181;48.072;9.884;2022-07-01T12:25:13;12.90;99.90
20041;DHT22;10181;48.072;9.884;2022-07-01T12:27:41;12.90;99.90
20041;DHT22;10181;48.072;9.884;2022-07-01T12:30:10;12.90;99.90
20041;DHT22;10181;48.072;9.884;2022-07-01T12:32:39;13.00;99.90
20041;DHT22;10181;48.072;9.884;2022-07-01T12:35:06;13.00;99.90
20041;DHT22;10181;48.072;9.884;2022-07-01T12:37:55;13.10;99.90
20041;DHT22;10181;48.072;9.884;2022-07-01T12:40:26;13.00;99.90
20041;DHT22;10181;48.072;9.884;2022-07-01T12:42:54;13.00;99.90
20041;DHT22;10181;48.072;9.884;2022-07-01T12:45:25;13.00;99.90
20041;DHT22;10181;48.072;9.884;2022-07-01T12:47:53;13.10;99.90
20041;DHT22;10181;48.072;9.884;2022-07-01T12:50:27;13.10;99.90
20041;DHT22;10181;48.072;9.884;2022-07-01T12:55:35;13.20;99.90
20041;DHT22;10181;48.072;9.884;2022-07-01T12:58:08;13.20;99.90
20041;DHT22;10181;48.072;9.884;2022-07-01T13:00:35;13.30;99.90
20041;DHT22;10181;48.072;9.884;2022-07-01T13:03:02;13.40;99.90
20041;DHT22;10181;48.072;9.884;2022-07-01T13:05:32;13.40;99.90
20041;DHT22;10181;48.072;9.884;2022-07-01T13:08:02;13.40;99.90
20041;DHT22;10181;48.072;9.884;2022-07-01T13:10:28;13.50;99.90
20041;DHT22;10181;48.072;9.884;2022-07-01T13:12:54;13.50;99.90
20041;DHT22;10181;48.072;9.884;2022-07-01T13:15:20;13.50;99.90
20041;DHT22;10181;48.072;9.884;2022-07-01T13:17:47;13.50;99.90
20041;DHT22;10181;48.072;9.884;2022-07-01T13:20:16;13.50;99.90
20041;DHT22;10181;48.072;9.884;2022-07-01T13:22:43;13.50;99.90
20041;DHT22;10181;48.072;9.884;2022-07-01T13:25:09;13.50;99.90
20041;DHT22;10181;48.072;9.884;2022-07-01T13:27:35;13.50;99.90
20041;DHT22;10181;48.072;9.884;2022-07-01T13:30:03;13.40;99.90
20041;DHT22;10181;48.072;9.884;2022-07-01T13:32:29;13.40;99.90
20041;DHT22;10181;48.072;9.884;2022-07-01T13:34:55;13.40;99.90
20041;DHT22;10181;48.072;9.884;2022-07-01T13:37:20;13.50;99.90
20041;DHT22;10181;48.072;9.884;2022-07-01T13:39:46;13.60;99.90
20041;DHT22;10181;48.072;9.884;2022-07-01T13:42:12;13.70;99.90
20041;DHT22;10181;48.072;9.884;2022-07-01T13:44:38;13.80;99.90
20041;DHT22;10181;48.072;9.884;2022-07-01T13:47:04;13.90;99.90
20041;DHT22;10181;48.072;9.884;2022-07-01T13:49:37;14.20;99.90
20041;DHT22;10181;48.072;9.884;2022-07-01T13:52:03;14.40;99.90
20041;DHT22;10181;48.072;9.884;2022-07-01T13:54:29;14.50;99.90
20041;DHT22;10181;48.072;9.884;2022-07-01T13:56:55;14.50;99.90
20041;DHT22;10181;48.072;9.884;2022-07-01T13:59:21;14.50;99.90
20041;DHT22;10181;48.072;9.884;2022-07-01T14:01:46;14.60;99.90
20041;DHT22;10181;48.072;9.884;2022-07-01T14:04:12;14.80;99.90
20041;DHT22;10181;48.072;9.884;2022-07-01T14:06:37;14.90;99.90
20041;DHT22;10181;48.072;9.884;2022-07-01T14:09:03;14.90;99.90
20041;DHT22;10181;48.072;9.884;2022-07-01T14:11:29;14.90;99.90
20041;DHT22;10181;48.072;9.884;2022-07-01T14:13:54;14.90;99.90
20041;DHT22;10181;48.072;9.884;2022-07-01T14:16:20;15.00;99.90
20041;DHT22;10181;48.072;9.884;2022-07-01T14:18:45;14.90;99.90
20041;DHT22;10181;48.072;9.884;2022-07-01T14:21:11;14.90;99.90
20041;DHT22;10181;48.072;9.884;2022-07-01T14:23:37;14.90;99.90
20041;DHT22;10181;48.072;9.884;2022-07-01T14:26:03;14.90;99.90
20041;DHT22;10181;48.072;9.884;2022-07-01T14:28:31;14.90;99.90
20041;DHT22;10181;48.072;9.884;2022-07-01T14:31:00;14.80;99.90
20041;DHT22;10181;48.072;9.884;2022-07-01T14:33:26;14.70;99.90
20041;DHT22;10181;48.072;9.884;2022-07-01T14:35:52;14.70;99.90
20041;DHT22;10181;48.072;9.884;2022-07-01T14:38:18;14.70;99.90
20041;DHT22;10181;48.072;9.884;2022-07-01T14:40:43;14.60;99.90
20041;DHT22;10181;48.072;9.884;2022-07-01T14:43:09;14.60;99.90
20041;DHT22;10181;48.072;9.884;2022-07-01T14:45:42;14.60;99.90
20041;DHT22;10181;48.072;9.884;2022-07-01T14:48:19;14.60;99.90
20041;DHT22;10181;48.072;9.884;2022-07-01T14:50:52;14.60;99.90
20041;DHT22;10181;48.072;9.884;2022-07-01T14:53:21;14.60;99.90
20041;DHT22;10181;48.072;9.884;2022-07-01T14:55:47;14.80;99.90
20041;DHT22;10181;48.072;9.884;2022-07-01T14:58:12;14.80;99.90
20041;DHT22;10181;48.072;9.884;2022-07-01T15:00:38;14.80;99.90
20041;DHT22;10181;48.072;9.884;2022-07-01T15:03:04;14.70;99.90
20041;DHT22;10181;48.072;9.884;2022-07-01T15:05:30;14.70;99.90
20041;DHT22;10181;48.072;9.884;2022-07-01T15:07:55;14.60;99.90
20041;DHT22;10181;48.072;9.884;2022-07-01T15:10:21;14.50;99.90
20041;DHT22;10181;48.072;9.884;2022-07-01T15:12:47;14.30;99.90
20041;DHT22;10181;48.072;9.884;2022-07-01T15:15:12;14.10;99.90
20041;DHT22;10181;48.072;9.884;2022-07-01T15:17:42;14.10;99.90
20041;DHT22;10181;48.072;9.884;2022-07-01T15:20:09;14.20;99.90
20041;DHT22;10181;48.072;9.884;2022-07-01T15:22:35;14.30;99.90
20041;DHT22;10181;48.072;9.884;2022-07-01T15:25:00;14.30;99.90
20041;DHT22;10181;48.072;9.884;2022-07-01T15:27:26;14.40;99.90
20041;DHT22;10181;48.072;9.884;2022-07-01T15:29:52;14.50;99.90
20041;DHT22;10181;48.072;9.884;2022-07-01T15:32:17;14.50;99.90
20041;DHT22;10181;48.072;9.884;2022-07-01T15:34:43;14.50;99.90
20041;DHT22;10181;48.072;9.884;2022-07-01T15:37:08;14.50;99.90
20041;DHT22;10181;48.072;9.884;2022-07-01T15:39:35;14.60;99.90
20041;DHT22;10181;48.072;9.884;2022-07-01T15:42:00;14.70;99.90
20041;DHT22;10181;48.072;9.884;2022-07-01T15:44:29;14.70;99.90
20041;DHT22;10181;48.072;9.884;2022-07-01T15:46:54;14.70;99.90
20041;DHT22;10181;48.072;9.884;2022-07-01T15:49:20;14.70;99.90
20041;DHT22;10181;48.072;9.884;2022-07-01T15:51:45;14.70;99.90
20041;DHT22;10181;48.072;9.884;2022-07-01T15:54:11;14.60;99.90
20041;DHT22;10181;48.072;9.884;2022-07-01T15:56:37;14.60;99.90